Aérodrome :
LOGIN :

S'inscrire | Disclaimer

   EN    FR    IT 

 










Légende :    VFR   VFR Marginal   IFR   IFR Intensif   IFR Très Intensif
Visi : 
Plafond : 
>= 8 km
>= 3000ft
5 à 8 km
1000 à 3000 ft
1500m à 5 km
500 à 1000 ft
800 à 1500m
200 à 500 ft
< 800m
< 200 ft
Symboles :   Orages  Brouillard  Fortes neiges  Fortes précipitations  Vent > 20 kt
SIGMETs :   Divers  Orages  Givrage  Turbulence  Onde Orograph.  Cendres Volcan.






- Altitude de l'aérodrome : 13 ft
- Code IATA : SNR


LFRZ - St-Nazaire

DERNIER METAR :
  • 171430Z AUTO 04005KT CAVOK 07/06 Q1009 NOSIG

METARs EXPIRÉS :
  • 171400Z AUTO 02005KT CAVOK 07/06 Q1009 NOSIG
  • 171330Z AUTO 02006KT 8000 NSC 06/06 Q1009 NOSIG
  • 171300Z AUTO 02006KT 7000 FEW006 07/06 Q1009 NOSIG
  • 171230Z AUTO 01006KT 7000 BKN006 BKN052 OVC160 07/06 Q1009 BECMG NSC
  • 171200Z AUTO 03005KT CAVOK 08/06 Q1009 NOSIG

TAF AMD TAF LFRZ
Valide du 17 à 12h jusqu'au 18 à 12h UTC


171204Z 1712/1812 07004KT CAVOK
BECMG 1721/1723 2000 BR
TEMPO 1723/1810 0500 FG VV///
BECMG 1810/1812 9999 NSW



MET'MAP, la Météo Aéronautique d'un coup d'oeil ! - Copyright ORBIFLY Décembre 2007 - Disclaimer

ORBIFLY MET'MAP TEAM :

Programmation & Développement : Alexandra Zaïnal
Conception & Développement : Baudouin d'Aumeries
Co-Programmation & Développement : Marc-Olivier Méhu
Soutien technique & logistique : Manuel Goepfert

Contact : metmap@orbifly.com




SOURCES & CREDITS :

   NOAA